createdAt,value
2019-03-27T00:00:26.819Z,2.30
2019-03-27T00:02:55.607Z,2.37
2019-03-27T00:05:27.589Z,2.15
2019-03-27T00:07:59.169Z,2.50
2019-03-27T00:10:27.579Z,2.15
2019-03-27T00:12:58.787Z,2.25
2019-03-27T00:15:27.186Z,2.30
2019-03-27T00:17:58.116Z,2.30
2019-03-27T00:20:31.092Z,2.75
2019-03-27T00:23:02.169Z,2.12
2019-03-27T00:25:33.889Z,2.30
2019-03-27T00:28:02.589Z,2.37
2019-03-27T00:30:31.284Z,2.40
2019-03-27T00:33:00.679Z,2.30
2019-03-27T00:35:30.392Z,1.92
2019-03-27T00:38:03.806Z,2.25
2019-03-27T00:40:32.459Z,2.05
2019-03-27T00:43:03.197Z,2.00
2019-03-27T00:45:33.328Z,2.20
2019-03-27T00:48:05.069Z,2.25
2019-03-27T00:50:38.868Z,2.00
2019-03-27T00:53:07.561Z,2.65
2019-03-27T00:55:39.101Z,2.40
2019-03-27T00:58:11.089Z,2.40
2019-03-27T01:00:47.800Z,2.20
2019-03-27T01:03:16.488Z,2.22
2019-03-27T01:05:50.247Z,2.25
2019-03-27T01:08:20.385Z,2.22
2019-03-27T01:10:51.091Z,2.25
2019-03-27T01:15:48.579Z,2.37
2019-03-27T01:18:17.167Z,2.10
2019-03-27T01:20:46.156Z,2.37
2019-03-27T01:23:16.269Z,2.20
2019-03-27T01:25:46.597Z,2.20
2019-03-27T01:28:15.031Z,2.12
2019-03-27T01:30:47.329Z,1.98
2019-03-27T01:33:17.959Z,2.22
2019-03-27T01:35:48.918Z,2.22
2019-03-27T01:38:20.579Z,2.10
2019-03-27T01:40:48.961Z,2.30
2019-03-27T01:43:17.930Z,2.30
2019-03-27T01:45:53.283Z,2.10
2019-03-27T01:48:19.557Z,2.12
2019-03-27T01:50:52.631Z,2.40
2019-03-27T01:53:21.149Z,2.10
2019-03-27T01:55:50.278Z,2.08
2019-03-27T01:58:20.089Z,2.10
2019-03-27T02:00:50.448Z,2.42
2019-03-27T02:03:19.188Z,2.10
2019-03-27T02:05:47.698Z,2.37
2019-03-27T02:08:16.467Z,2.27
2019-03-27T02:10:45.959Z,2.40
2019-03-27T02:13:17.169Z,2.20
2019-03-27T02:15:48.098Z,1.92
2019-03-27T02:18:18.367Z,2.00
2019-03-27T02:20:50.129Z,1.90
2019-03-27T02:23:20.859Z,2.15
2019-03-27T02:25:51.460Z,2.20
2019-03-27T02:28:21.210Z,2.02
2019-03-27T02:30:50.810Z,2.00
2019-03-27T02:33:20.608Z,2.27
2019-03-27T02:35:49.590Z,2.10
2019-03-27T02:38:21.192Z,2.12
2019-03-27T02:40:50.689Z,1.90
2019-03-27T02:43:19.505Z,2.10
2019-03-27T02:45:52.149Z,2.27
2019-03-27T02:48:26.599Z,2.10
2019-03-27T02:51:01.090Z,2.20
2019-03-27T02:53:31.698Z,1.95
2019-03-27T02:56:00.503Z,1.98
2019-03-27T02:58:33.078Z,2.00
2019-03-27T03:01:02.641Z,2.40
2019-03-27T03:03:34.178Z,1.85
2019-03-27T03:06:06.212Z,2.12
2019-03-27T03:08:38.079Z,2.40
2019-03-27T03:11:10.327Z,2.02
2019-03-27T03:13:40.150Z,2.42
2019-03-27T03:16:10.070Z,2.10
2019-03-27T03:18:38.507Z,2.07
2019-03-27T03:21:09.789Z,1.85
2019-03-27T03:23:39.003Z,2.12
2019-03-27T03:26:08.510Z,2.15
2019-03-27T03:28:38.108Z,2.22
2019-03-27T03:31:07.607Z,2.02
2019-03-27T03:33:38.163Z,2.20
2019-03-27T03:36:09.172Z,2.27
2019-03-27T03:38:39.109Z,2.12
2019-03-27T03:41:10.331Z,2.00
2019-03-27T03:43:38.757Z,2.27
2019-03-27T03:46:09.957Z,2.22
2019-03-27T03:48:40.520Z,1.98
2019-03-27T03:51:14.819Z,2.20
2019-03-27T03:53:49.458Z,2.17
2019-03-27T03:56:19.136Z,2.10
2019-03-27T03:58:50.010Z,2.10
2019-03-27T04:01:18.669Z,2.27
2019-03-27T04:03:48.167Z,2.15
2019-03-27T04:06:20.855Z,2.57
2019-03-27T04:08:49.326Z,1.90
2019-03-27T04:11:18.279Z,2.72
2019-03-27T04:13:47.869Z,2.00
2019-03-27T04:16:17.260Z,2.12
2019-03-27T04:18:47.968Z,2.20
2019-03-27T04:21:16.330Z,2.12
2019-03-27T04:23:46.180Z,2.50
2019-03-27T04:26:16.180Z,2.25
2019-03-27T04:28:46.357Z,2.33
2019-03-27T04:31:16.110Z,2.30
2019-03-27T04:33:45.837Z,2.47
2019-03-27T04:36:18.489Z,2.10
2019-03-27T04:38:48.208Z,2.25
2019-03-27T04:41:18.690Z,2.40
2019-03-27T04:43:53.467Z,2.30
2019-03-27T04:46:22.217Z,2.40
2019-03-27T04:48:50.659Z,2.22
2019-03-27T04:51:19.398Z,2.20
2019-03-27T04:53:49.020Z,2.40
2019-03-27T04:56:20.581Z,2.12
2019-03-27T04:58:52.609Z,2.20
2019-03-27T05:01:24.409Z,2.27
2019-03-27T05:03:55.138Z,2.52
2019-03-27T05:08:52.207Z,2.45
2019-03-27T05:11:21.074Z,2.52
2019-03-27T05:13:52.340Z,2.37
2019-03-27T05:16:22.191Z,2.58
2019-03-27T05:21:20.749Z,2.40
2019-03-27T05:23:50.798Z,2.50
2019-03-27T05:26:19.970Z,2.12
2019-03-27T05:28:51.199Z,2.52
2019-03-27T05:31:20.420Z,2.30
2019-03-27T05:33:51.659Z,2.12
2019-03-27T05:36:20.659Z,2.42
2019-03-27T05:38:51.069Z,2.27
2019-03-27T05:41:19.549Z,2.45
2019-03-27T05:43:50.089Z,2.50
2019-03-27T05:46:21.219Z,2.77
2019-03-27T05:48:50.868Z,2.62
2019-03-27T05:51:21.252Z,2.52
2019-03-27T05:53:50.762Z,2.37
2019-03-27T05:56:21.919Z,2.60
2019-03-27T05:58:53.469Z,2.60
2019-03-27T06:01:21.899Z,2.50
2019-03-27T06:03:51.875Z,3.00
2019-03-27T06:06:23.957Z,2.93
2019-03-27T06:08:53.831Z,2.50
2019-03-27T06:11:28.155Z,2.90
2019-03-27T06:13:56.601Z,2.75
2019-03-27T06:16:26.892Z,2.62
2019-03-27T06:18:56.869Z,2.52
2019-03-27T06:21:30.239Z,2.92
2019-03-27T06:24:08.569Z,2.87
2019-03-27T06:26:37.299Z,2.52
2019-03-27T06:29:06.459Z,2.92
2019-03-27T06:31:37.189Z,2.70
2019-03-27T06:36:42.158Z,2.52
2019-03-27T06:39:14.614Z,2.85
2019-03-27T06:41:46.190Z,2.62
2019-03-27T06:44:17.109Z,2.75
2019-03-27T06:46:47.732Z,3.08
2019-03-27T06:51:55.794Z,2.70
2019-03-27T06:54:24.769Z,2.83
2019-03-27T06:56:56.109Z,2.95
2019-03-27T06:59:26.550Z,2.55
2019-03-27T07:01:58.702Z,2.70
2019-03-27T07:04:29.628Z,2.70
2019-03-27T07:07:00.882Z,2.62
2019-03-27T07:09:31.319Z,3.15
2019-03-27T07:11:59.708Z,2.95
2019-03-27T07:14:30.634Z,3.20
2019-03-27T07:17:01.250Z,3.22
2019-03-27T07:19:46.741Z,3.62
2019-03-27T07:22:19.311Z,4.75
2019-03-27T07:24:49.576Z,5.25
2019-03-27T07:27:24.630Z,5.85
2019-03-27T07:29:59.990Z,6.37
2019-03-27T07:32:33.519Z,6.53
2019-03-27T07:35:07.239Z,6.75
2019-03-27T07:37:38.679Z,6.78
2019-03-27T07:40:09.940Z,7.47
2019-03-27T07:42:40.473Z,7.65
2019-03-27T07:45:13.457Z,7.53
2019-03-27T07:47:44.099Z,7.90
2019-03-27T07:50:13.378Z,8.23
2019-03-27T07:52:43.069Z,7.83
2019-03-27T07:55:19.716Z,8.15
2019-03-27T07:57:45.569Z,9.15
2019-03-27T08:00:18.662Z,8.77
2019-03-27T08:02:51.423Z,8.05
2019-03-27T08:05:21.149Z,7.97
2019-03-27T08:07:52.618Z,8.55
2019-03-27T08:10:21.379Z,7.60
2019-03-27T08:12:51.090Z,8.40
2019-03-27T08:15:23.199Z,7.92
2019-03-27T08:17:53.578Z,7.72
2019-03-27T08:20:23.209Z,7.72
2019-03-27T08:22:52.952Z,7.85
2019-03-27T08:25:24.635Z,7.25
2019-03-27T08:27:54.269Z,7.42
2019-03-27T08:30:24.086Z,8.00
2019-03-27T08:32:56.067Z,7.60
2019-03-27T08:35:24.579Z,6.90
2019-03-27T08:37:56.869Z,7.08
2019-03-27T08:40:25.999Z,6.35
2019-03-27T08:42:57.538Z,6.87
2019-03-27T08:45:26.349Z,6.97
2019-03-27T08:47:55.059Z,6.60
2019-03-27T08:50:26.172Z,6.10
2019-03-27T08:52:58.009Z,6.30
2019-03-27T08:55:30.599Z,5.67
2019-03-27T08:58:04.289Z,5.70
2019-03-27T09:00:52.139Z,6.30
2019-03-27T09:03:20.729Z,5.28
2019-03-27T09:05:50.136Z,5.00
2019-03-27T09:08:18.899Z,4.85
2019-03-27T09:10:47.299Z,4.90
2019-03-27T09:13:16.280Z,4.78
2019-03-27T09:15:46.837Z,5.17
2019-03-27T09:18:17.033Z,5.03
2019-03-27T09:20:45.724Z,5.00
2019-03-27T09:23:15.950Z,4.53
2019-03-27T09:25:44.729Z,4.78
2019-03-27T09:28:13.619Z,4.72
2019-03-27T09:30:42.529Z,4.55
2019-03-27T09:33:12.949Z,4.83
2019-03-27T09:35:41.350Z,4.60
2019-03-27T09:38:10.309Z,3.90
2019-03-27T09:40:39.209Z,4.28
2019-03-27T09:43:09.323Z,3.95
2019-03-27T09:45:38.229Z,4.45
2019-03-27T09:48:07.109Z,4.42
2019-03-27T09:50:35.609Z,3.90
2019-03-27T09:53:04.319Z,4.00
2019-03-27T09:55:32.756Z,3.80
2019-03-27T09:58:01.608Z,4.00
2019-03-27T10:00:48.904Z,3.47
2019-03-27T10:03:18.080Z,4.08
2019-03-27T10:05:46.810Z,3.95
2019-03-27T10:08:15.749Z,3.80
2019-03-27T10:10:44.527Z,3.90
2019-03-27T10:13:13.220Z,3.80
2019-03-27T10:15:44.871Z,3.52
2019-03-27T10:18:17.878Z,3.60
2019-03-27T10:20:47.177Z,3.90
2019-03-27T10:23:17.406Z,3.75
2019-03-27T10:25:46.209Z,3.70
2019-03-27T10:28:16.109Z,3.33
2019-03-27T10:30:46.219Z,3.23
2019-03-27T10:33:15.461Z,3.30
2019-03-27T10:35:48.019Z,3.37
2019-03-27T10:38:16.468Z,3.30
2019-03-27T10:40:47.711Z,2.98
2019-03-27T10:43:20.195Z,2.77
2019-03-27T10:45:52.139Z,3.20
2019-03-27T10:48:22.277Z,3.10
2019-03-27T10:50:51.013Z,3.27
2019-03-27T10:53:24.137Z,3.50
2019-03-27T10:55:57.128Z,3.22
2019-03-27T10:58:29.505Z,3.40
2019-03-27T11:01:01.941Z,3.02
2019-03-27T11:03:30.669Z,3.20
2019-03-27T11:06:02.209Z,3.45
2019-03-27T11:08:33.257Z,3.10
2019-03-27T11:11:02.239Z,2.98
2019-03-27T11:13:34.429Z,2.77
2019-03-27T11:16:07.209Z,2.90
2019-03-27T11:18:39.410Z,2.60
2019-03-27T11:21:11.329Z,2.70
2019-03-27T11:23:41.559Z,2.83
2019-03-27T11:26:12.189Z,2.60
2019-03-27T11:28:43.849Z,2.95
2019-03-27T11:31:13.360Z,3.20
2019-03-27T11:33:44.192Z,2.60
2019-03-27T11:36:14.731Z,2.67
2019-03-27T11:38:46.060Z,2.70
2019-03-27T11:41:18.119Z,2.92
2019-03-27T11:43:54.791Z,2.55
2019-03-27T11:46:20.009Z,2.87
2019-03-27T11:48:50.610Z,2.62
2019-03-27T11:51:19.969Z,2.67
2019-03-27T11:53:51.897Z,3.17
2019-03-27T11:56:22.536Z,2.40
2019-03-27T11:58:50.968Z,2.52
2019-03-27T12:01:24.290Z,2.40
2019-03-27T12:03:56.075Z,2.22
2019-03-27T12:06:31.201Z,2.58
2019-03-27T12:09:00.179Z,2.37
2019-03-27T12:11:29.698Z,2.70
2019-03-27T12:13:58.897Z,2.72
2019-03-27T12:16:30.649Z,2.50
2019-03-27T12:19:00.411Z,2.65
2019-03-27T12:21:33.859Z,2.98
2019-03-27T12:24:05.320Z,2.92
2019-03-27T12:26:36.649Z,2.35
2019-03-27T12:29:08.329Z,2.60
2019-03-27T12:31:40.777Z,3.35
2019-03-27T12:34:11.212Z,3.12
2019-03-27T12:41:45.592Z,3.00
2019-03-27T12:44:16.299Z,3.37
2019-03-27T12:46:46.714Z,2.75
2019-03-27T12:49:18.384Z,4.00
2019-03-27T12:51:48.297Z,3.10
2019-03-27T12:54:18.659Z,3.45
2019-03-27T12:56:50.779Z,3.20
2019-03-27T12:59:20.077Z,3.12
2019-03-27T13:01:50.023Z,3.00
2019-03-27T13:04:22.059Z,3.10
2019-03-27T13:06:52.897Z,2.77
2019-03-27T13:09:22.721Z,2.67
2019-03-27T13:11:53.139Z,2.77
2019-03-27T13:14:23.886Z,2.47
2019-03-27T13:16:54.710Z,2.90
2019-03-27T13:21:55.702Z,2.40
2019-03-27T13:24:25.898Z,2.70
2019-03-27T13:26:55.709Z,2.45
2019-03-27T13:29:27.149Z,2.37
2019-03-27T13:31:58.812Z,2.37
2019-03-27T13:34:30.829Z,2.72
2019-03-27T13:37:00.078Z,2.20
2019-03-27T13:39:31.280Z,2.37
2019-03-27T13:42:00.510Z,2.55
2019-03-27T13:44:36.843Z,2.70
2019-03-27T13:47:00.163Z,2.83
2019-03-27T13:49:30.570Z,2.70
2019-03-27T13:51:59.469Z,2.47
2019-03-27T13:54:29.480Z,2.12
2019-03-27T13:57:01.429Z,2.33
2019-03-27T13:59:31.993Z,2.47
2019-03-27T14:02:01.879Z,2.50
2019-03-27T14:04:30.352Z,2.70
2019-03-27T14:06:58.958Z,2.60
2019-03-27T14:09:28.869Z,2.52
2019-03-27T14:11:59.811Z,2.27
2019-03-27T14:14:29.709Z,2.67
2019-03-27T14:16:58.119Z,2.47
2019-03-27T14:19:30.577Z,2.50
2019-03-27T14:22:00.232Z,2.22
2019-03-27T14:24:28.787Z,2.30
2019-03-27T14:27:01.327Z,2.40
2019-03-27T14:29:29.659Z,2.55
2019-03-27T14:31:58.628Z,2.42
2019-03-27T14:34:28.759Z,2.22
2019-03-27T14:36:58.659Z,2.20
2019-03-27T14:39:30.089Z,2.62
2019-03-27T14:42:00.238Z,2.30
2019-03-27T14:44:33.290Z,2.15
2019-03-27T14:47:04.231Z,2.00
2019-03-27T14:49:32.679Z,2.22
2019-03-27T14:52:08.204Z,2.05
2019-03-27T14:54:32.049Z,2.30
2019-03-27T14:57:05.442Z,1.90
2019-03-27T14:59:37.389Z,2.20
2019-03-27T15:02:07.099Z,2.27
2019-03-27T15:04:37.840Z,2.10
2019-03-27T15:09:37.049Z,2.10
2019-03-27T15:12:06.449Z,2.62
2019-03-27T15:14:35.950Z,2.30
2019-03-27T15:17:05.499Z,2.47
2019-03-27T15:19:34.051Z,2.10
2019-03-27T15:22:03.669Z,2.05
2019-03-27T15:24:33.969Z,2.70
2019-03-27T15:27:05.471Z,2.02
2019-03-27T15:29:36.877Z,2.62
2019-03-27T15:32:08.633Z,2.35
2019-03-27T15:34:37.950Z,2.27
2019-03-27T15:37:12.876Z,2.42
2019-03-27T15:39:38.281Z,2.20
2019-03-27T15:42:11.199Z,2.30
2019-03-27T15:44:40.569Z,2.67
2019-03-27T15:47:10.370Z,2.50
2019-03-27T15:49:42.289Z,2.50
2019-03-27T15:52:13.050Z,2.30
2019-03-27T15:57:15.370Z,2.70
2019-03-27T15:59:45.780Z,2.00
2019-03-27T16:02:17.129Z,2.80
2019-03-27T16:04:50.950Z,2.40
2019-03-27T16:07:20.899Z,2.40
2019-03-27T16:09:49.622Z,2.60
2019-03-27T16:12:19.239Z,2.27
2019-03-27T16:14:49.370Z,2.85
2019-03-27T16:17:21.221Z,2.40
2019-03-27T16:19:51.769Z,2.52
2019-03-27T16:22:23.911Z,2.65
2019-03-27T16:27:22.625Z,2.72
2019-03-27T16:29:54.089Z,3.10
2019-03-27T16:32:22.669Z,3.10
2019-03-27T16:34:53.409Z,2.92
2019-03-27T16:39:54.570Z,3.72
2019-03-27T16:42:25.860Z,3.70
2019-03-27T16:44:53.977Z,3.40
2019-03-27T16:47:24.517Z,3.42
2019-03-27T16:49:53.709Z,3.08
2019-03-27T16:52:23.247Z,3.85
2019-03-27T16:54:54.569Z,4.20
2019-03-27T16:57:23.297Z,3.40
2019-03-27T16:59:51.679Z,4.28
2019-03-27T17:02:22.749Z,4.87
2019-03-27T17:07:22.075Z,5.42
2019-03-27T17:09:52.538Z,4.87
2019-03-27T17:14:54.131Z,4.75
2019-03-27T17:17:26.110Z,5.58
2019-03-27T17:19:54.631Z,5.22
2019-03-27T17:22:23.327Z,5.25
2019-03-27T17:24:51.928Z,5.22
2019-03-27T17:27:22.084Z,5.15
2019-03-27T17:29:54.493Z,5.35
2019-03-27T17:32:23.989Z,5.90
2019-03-27T17:34:52.390Z,5.85
2019-03-27T17:37:21.809Z,5.90
2019-03-27T17:39:51.939Z,6.10
2019-03-27T17:42:21.289Z,6.70
2019-03-27T17:44:52.260Z,7.55
2019-03-27T17:47:21.073Z,7.47
2019-03-27T17:49:50.227Z,7.92
2019-03-27T17:52:20.041Z,7.67
2019-03-27T17:54:51.849Z,7.17
2019-03-27T17:57:21.198Z,7.95
2019-03-27T17:59:52.039Z,7.03
2019-03-27T18:04:51.160Z,7.62
2019-03-27T18:09:51.301Z,8.05
2019-03-27T18:12:21.099Z,8.30
2019-03-27T18:14:51.430Z,8.33
2019-03-27T18:17:22.999Z,8.65
2019-03-27T18:19:51.510Z,8.40
2019-03-27T18:22:20.579Z,8.30
2019-03-27T18:24:51.730Z,8.10
2019-03-27T18:29:53.677Z,7.62
2019-03-27T18:34:52.942Z,7.37
2019-03-27T18:37:21.569Z,7.65
2019-03-27T18:39:50.886Z,7.35
2019-03-27T18:42:20.816Z,6.45
2019-03-27T18:44:50.728Z,6.20
2019-03-27T18:47:20.833Z,6.77
2019-03-27T18:49:52.067Z,6.85
2019-03-27T18:52:20.468Z,6.92
2019-03-27T18:54:51.090Z,6.72
2019-03-27T18:57:19.789Z,5.97
2019-03-27T18:59:50.766Z,7.33
2019-03-27T19:02:22.779Z,6.20
2019-03-27T19:04:53.616Z,5.72
2019-03-27T19:07:26.171Z,6.22
2019-03-27T19:09:54.681Z,6.05
2019-03-27T19:12:26.776Z,6.10
2019-03-27T19:14:56.629Z,6.05
2019-03-27T19:17:44.749Z,6.10
2019-03-27T19:20:11.219Z,6.00
2019-03-27T19:22:42.977Z,6.03
2019-03-27T19:25:12.690Z,5.80
2019-03-27T19:27:45.630Z,5.92
2019-03-27T19:30:17.227Z,5.95
2019-03-27T19:32:50.017Z,5.92
2019-03-27T19:35:24.209Z,5.85
2019-03-27T19:37:52.920Z,5.83
2019-03-27T19:40:21.702Z,5.33
2019-03-27T19:42:52.377Z,5.37
2019-03-27T19:45:22.160Z,6.03
2019-03-27T19:50:22.178Z,6.12
2019-03-27T19:52:53.209Z,5.42
2019-03-27T19:55:25.378Z,5.08
2019-03-27T19:57:54.779Z,5.72
2019-03-27T20:00:24.510Z,5.62
2019-03-27T20:02:56.030Z,5.67
2019-03-27T20:05:33.121Z,5.08
2019-03-27T20:08:08.379Z,5.67
2019-03-27T20:10:40.841Z,5.70
2019-03-27T20:13:09.829Z,5.60
2019-03-27T20:15:42.401Z,5.33
2019-03-27T20:18:16.450Z,5.28
2019-03-27T20:20:53.911Z,5.37
2019-03-27T20:23:23.528Z,4.67
2019-03-27T20:25:54.237Z,4.83
2019-03-27T20:31:07.730Z,5.15
2019-03-27T20:33:38.406Z,4.97
2019-03-27T20:36:13.231Z,5.37
2019-03-27T20:38:51.991Z,5.05
2019-03-27T20:41:23.528Z,5.20
2019-03-27T20:43:53.870Z,4.97
2019-03-27T20:46:29.169Z,4.83
2019-03-27T20:48:57.262Z,4.95
2019-03-27T20:51:27.732Z,5.35
2019-03-27T20:54:03.512Z,5.15
2019-03-27T20:56:36.055Z,5.37
2019-03-27T20:59:06.401Z,4.78
2019-03-27T21:01:44.758Z,4.90
2019-03-27T21:04:29.120Z,4.60
2019-03-27T21:07:10.299Z,5.30
2019-03-27T21:09:55.596Z,5.15
2019-03-27T21:12:26.518Z,5.08
2019-03-27T21:15:08.311Z,4.83
2019-03-27T21:17:38.130Z,5.03
2019-03-27T21:20:09.571Z,5.15
2019-03-27T21:22:38.559Z,4.70
2019-03-27T21:25:11.549Z,4.97
2019-03-27T21:27:46.089Z,5.40
2019-03-27T21:30:17.039Z,5.40
2019-03-27T21:32:49.989Z,5.50
2019-03-27T21:35:19.331Z,5.33
2019-03-27T21:37:51.159Z,4.72
2019-03-27T21:40:22.759Z,4.92
2019-03-27T21:42:52.219Z,4.85
2019-03-27T21:45:21.109Z,5.10
2019-03-27T21:47:51.452Z,5.55
2019-03-27T21:50:22.338Z,4.80
2019-03-27T21:53:00.677Z,5.65
2019-03-27T21:55:23.217Z,5.22
2019-03-27T21:57:53.718Z,5.22
2019-03-27T22:00:42.589Z,5.40
2019-03-27T22:03:13.957Z,5.05
2019-03-27T22:05:46.358Z,5.05
2019-03-27T22:08:16.148Z,5.17
2019-03-27T22:10:47.032Z,5.10
2019-03-27T22:13:15.659Z,4.87
2019-03-27T22:15:45.086Z,5.28
2019-03-27T22:18:13.508Z,5.40
2019-03-27T22:20:42.969Z,4.87
2019-03-27T22:23:14.009Z,5.10
2019-03-27T22:25:42.386Z,5.05
2019-03-27T22:28:11.153Z,4.85
2019-03-27T22:30:42.559Z,5.35
2019-03-27T22:33:12.590Z,5.22
2019-03-27T22:35:41.129Z,5.37
2019-03-27T22:38:10.209Z,5.47
2019-03-27T22:40:39.211Z,5.12
2019-03-27T22:43:07.649Z,5.10
2019-03-27T22:45:43.329Z,5.20
2019-03-27T22:48:12.548Z,5.85
2019-03-27T22:50:44.090Z,5.28
2019-03-27T22:53:13.389Z,5.37
2019-03-27T22:55:49.910Z,5.28
2019-03-27T22:58:13.139Z,5.40
2019-03-27T23:00:44.149Z,5.03
2019-03-27T23:03:18.379Z,5.37
2019-03-27T23:05:46.691Z,5.37
2019-03-27T23:10:44.232Z,5.40
2019-03-27T23:13:17.233Z,5.53
2019-03-27T23:15:48.750Z,5.40
2019-03-27T23:18:18.068Z,5.37
2019-03-27T23:20:46.813Z,5.30
2019-03-27T23:23:19.648Z,5.87
2019-03-27T23:26:02.458Z,5.45
2019-03-27T23:28:21.936Z,5.33
2019-03-27T23:30:52.138Z,5.37
2019-03-27T23:33:20.600Z,5.25
2019-03-27T23:35:52.168Z,5.65
2019-03-27T23:38:22.089Z,5.12
2019-03-27T23:40:50.857Z,5.03
2019-03-27T23:43:19.468Z,5.42
2019-03-27T23:45:48.171Z,4.60
2019-03-27T23:48:17.659Z,5.70
2019-03-27T23:50:47.171Z,5.67
2019-03-27T23:53:16.788Z,5.65
2019-03-27T23:55:47.178Z,5.33
2019-03-27T23:58:15.882Z,5.75
